sensor_id;sensor_type;location;lat;lon;timestamp;temperature;humidity
31675;DHT22;18276;45.520;11.018;2023-04-03T00:00:54;11.20;67.90
31675;DHT22;18276;45.520;11.018;2023-04-03T00:03:22;11.20;67.80
31675;DHT22;18276;45.520;11.018;2023-04-03T00:05:49;11.10;67.70
31675;DHT22;18276;45.520;11.018;2023-04-03T00:08:16;11.10;67.60
31675;DHT22;18276;45.520;11.018;2023-04-03T00:10:43;11.10;67.70
31675;DHT22;18276;45.520;11.018;2023-04-03T00:13:10;11.10;67.90
31675;DHT22;18276;45.520;11.018;2023-04-03T00:15:38;11.00;67.90
31675;DHT22;18276;45.520;11.018;2023-04-03T00:18:05;11.00;67.90
31675;DHT22;18276;45.520;11.018;2023-04-03T00:20:33;11.00;67.90
31675;DHT22;18276;45.520;11.018;2023-04-03T00:23:02;10.90;67.90
31675;DHT22;18276;45.520;11.018;2023-04-03T00:25:29;10.90;67.90
31675;DHT22;18276;45.520;11.018;2023-04-03T00:27:56;10.90;67.90
31675;DHT22;18276;45.520;11.018;2023-04-03T00:30:23;10.90;67.80
31675;DHT22;18276;45.520;11.018;2023-04-03T00:32:52;10.80;67.60
31675;DHT22;18276;45.520;11.018;2023-04-03T00:35:20;10.90;67.60
31675;DHT22;18276;45.520;11.018;2023-04-03T00:37:50;10.90;67.40
31675;DHT22;18276;45.520;11.018;2023-04-03T00:40:18;10.90;67.30
31675;DHT22;18276;45.520;11.018;2023-04-03T00:42:46;10.90;67.10
31675;DHT22;18276;45.520;11.018;2023-04-03T00:45:33;10.80;67.10
31675;DHT22;18276;45.520;11.018;2023-04-03T00:48:03;10.80;67.10
31675;DHT22;18276;45.520;11.018;2023-04-03T00:50:36;10.80;67.00
31675;DHT22;18276;45.520;11.018;2023-04-03T00:53:06;10.80;66.80
31675;DHT22;18276;45.520;11.018;2023-04-03T00:55:35;10.80;66.80
31675;DHT22;18276;45.520;11.018;2023-04-03T00:58:03;10.70;66.90
31675;DHT22;18276;45.520;11.018;2023-04-03T01:00:31;10.70;66.80
31675;DHT22;18276;45.520;11.018;2023-04-03T01:02:58;10.80;66.80
31675;DHT22;18276;45.520;11.018;2023-04-03T01:05:26;10.70;66.70
31675;DHT22;18276;45.520;11.018;2023-04-03T01:07:53;10.70;66.70
31675;DHT22;18276;45.520;11.018;2023-04-03T01:10:21;10.70;66.80
31675;DHT22;18276;45.520;11.018;2023-04-03T01:12:51;10.70;66.70
31675;DHT22;18276;45.520;11.018;2023-04-03T01:15:23;10.70;66.70
31675;DHT22;18276;45.520;11.018;2023-04-03T01:17:57;10.60;66.50
31675;DHT22;18276;45.520;11.018;2023-04-03T01:25:41;10.60;65.70
31675;DHT22;18276;45.520;11.018;2023-04-03T01:28:18;10.60;65.60
31675;DHT22;18276;45.520;11.018;2023-04-03T01:30:53;10.60;65.60
31675;DHT22;18276;45.520;11.018;2023-04-03T01:33:24;10.60;65.50
31675;DHT22;18276;45.520;11.018;2023-04-03T01:35:51;10.60;65.50
31675;DHT22;18276;45.520;11.018;2023-04-03T01:38:18;10.60;65.40
31675;DHT22;18276;45.520;11.018;2023-04-03T01:40:45;10.50;65.40
31675;DHT22;18276;45.520;11.018;2023-04-03T01:43:12;10.50;65.30
31675;DHT22;18276;45.520;11.018;2023-04-03T01:45:40;10.50;65.20
31675;DHT22;18276;45.520;11.018;2023-04-03T01:48:07;10.50;65.10
31675;DHT22;18276;45.520;11.018;2023-04-03T01:50:34;10.50;64.90
31675;DHT22;18276;45.520;11.018;2023-04-03T01:53:01;10.50;64.80
31675;DHT22;18276;45.520;11.018;2023-04-03T01:55:28;10.50;64.70
31675;DHT22;18276;45.520;11.018;2023-04-03T01:57:55;10.50;64.70
31675;DHT22;18276;45.520;11.018;2023-04-03T02:00:23;10.40;64.70
31675;DHT22;18276;45.520;11.018;2023-04-03T02:02:50;10.40;64.60
31675;DHT22;18276;45.520;11.018;2023-04-03T02:05:17;10.40;64.60
31675;DHT22;18276;45.520;11.018;2023-04-03T02:07:44;10.40;64.70
31675;DHT22;18276;45.520;11.018;2023-04-03T02:10:12;10.40;64.80
31675;DHT22;18276;45.520;11.018;2023-04-03T02:12:39;10.40;64.90
31675;DHT22;18276;45.520;11.018;2023-04-03T02:15:06;10.30;64.90
31675;DHT22;18276;45.520;11.018;2023-04-03T02:17:34;10.30;64.90
31675;DHT22;18276;45.520;11.018;2023-04-03T02:20:02;10.30;64.90
31675;DHT22;18276;45.520;11.018;2023-04-03T02:22:30;10.30;65.00
31675;DHT22;18276;45.520;11.018;2023-04-03T02:24:57;10.30;65.10
31675;DHT22;18276;45.520;11.018;2023-04-03T02:27:24;10.30;65.00
31675;DHT22;18276;45.520;11.018;2023-04-03T02:29:51;10.30;65.00
31675;DHT22;18276;45.520;11.018;2023-04-03T02:32:18;10.30;65.10
31675;DHT22;18276;45.520;11.018;2023-04-03T02:34:46;10.30;65.10
31675;DHT22;18276;45.520;11.018;2023-04-03T02:37:14;10.20;65.20
31675;DHT22;18276;45.520;11.018;2023-04-03T02:39:43;10.20;65.30
31675;DHT22;18276;45.520;11.018;2023-04-03T02:42:11;10.20;65.50
31675;DHT22;18276;45.520;11.018;2023-04-03T02:44:38;10.20;65.50
31675;DHT22;18276;45.520;11.018;2023-04-03T02:47:05;10.20;65.50
31675;DHT22;18276;45.520;11.018;2023-04-03T02:49:32;10.20;65.70
31675;DHT22;18276;45.520;11.018;2023-04-03T02:51:59;10.10;65.70
31675;DHT22;18276;45.520;11.018;2023-04-03T02:54:26;10.10;65.90
31675;DHT22;18276;45.520;11.018;2023-04-03T02:57:00;10.10;65.90
31675;DHT22;18276;45.520;11.018;2023-04-03T02:59:28;10.10;65.90
31675;DHT22;18276;45.520;11.018;2023-04-03T03:01:55;10.10;65.90
31675;DHT22;18276;45.520;11.018;2023-04-03T03:04:23;10.10;65.80
31675;DHT22;18276;45.520;11.018;2023-04-03T03:06:50;10.10;65.90
31675;DHT22;18276;45.520;11.018;2023-04-03T03:09:17;10.10;65.90
31675;DHT22;18276;45.520;11.018;2023-04-03T03:11:44;10.10;65.90
31675;DHT22;18276;45.520;11.018;2023-04-03T03:14:11;10.10;65.90
31675;DHT22;18276;45.520;11.018;2023-04-03T03:16:38;10.10;65.70
31675;DHT22;18276;45.520;11.018;2023-04-03T03:19:05;10.10;65.90
31675;DHT22;18276;45.520;11.018;2023-04-03T03:21:33;10.10;65.90
31675;DHT22;18276;45.520;11.018;2023-04-03T03:24:01;10.10;66.00
31675;DHT22;18276;45.520;11.018;2023-04-03T03:26:28;10.10;66.00
31675;DHT22;18276;45.520;11.018;2023-04-03T03:28:55;10.10;66.00
31675;DHT22;18276;45.520;11.018;2023-04-03T03:31:22;10.10;65.70
31675;DHT22;18276;45.520;11.018;2023-04-03T03:33:49;10.20;65.60
31675;DHT22;18276;45.520;11.018;2023-04-03T03:36:16;10.20;65.70
31675;DHT22;18276;45.520;11.018;2023-04-03T03:38:43;10.10;65.70
31675;DHT22;18276;45.520;11.018;2023-04-03T03:41:10;10.20;65.90
31675;DHT22;18276;45.520;11.018;2023-04-03T03:43:38;10.20;66.00
31675;DHT22;18276;45.520;11.018;2023-04-03T03:46:06;10.10;66.80
31675;DHT22;18276;45.520;11.018;2023-04-03T03:48:33;10.10;66.20
31675;DHT22;18276;45.520;11.018;2023-04-03T03:51:01;10.10;66.30
31675;DHT22;18276;45.520;11.018;2023-04-03T03:53:32;10.00;66.40
31675;DHT22;18276;45.520;11.018;2023-04-03T03:56:04;10.00;66.50
31675;DHT22;18276;45.520;11.018;2023-04-03T03:58:32;10.00;66.60
31675;DHT22;18276;45.520;11.018;2023-04-03T04:01:04;10.00;66.70
31675;DHT22;18276;45.520;11.018;2023-04-03T04:03:35;10.00;66.80
31675;DHT22;18276;45.520;11.018;2023-04-03T04:06:02;9.90;66.80
31675;DHT22;18276;45.520;11.018;2023-04-03T04:08:29;9.90;66.80
31675;DHT22;18276;45.520;11.018;2023-04-03T04:10:57;9.90;66.70
31675;DHT22;18276;45.520;11.018;2023-04-03T04:13:24;9.90;66.40
31675;DHT22;18276;45.520;11.018;2023-04-03T04:15:51;10.00;66.20
31675;DHT22;18276;45.520;11.018;2023-04-03T04:18:19;10.00;66.20
31675;DHT22;18276;45.520;11.018;2023-04-03T04:20:48;10.00;66.00
31675;DHT22;18276;45.520;11.018;2023-04-03T04:23:18;10.10;65.80
31675;DHT22;18276;45.520;11.018;2023-04-03T04:25:48;10.00;65.80
31675;DHT22;18276;45.520;11.018;2023-04-03T04:28:15;10.00;65.80
31675;DHT22;18276;45.520;11.018;2023-04-03T04:30:43;10.00;65.80
31675;DHT22;18276;45.520;11.018;2023-04-03T04:33:12;10.00;65.90
31675;DHT22;18276;45.520;11.018;2023-04-03T04:35:42;9.90;65.90
31675;DHT22;18276;45.520;11.018;2023-04-03T04:38:11;9.90;66.20
31675;DHT22;18276;45.520;11.018;2023-04-03T04:40:38;9.90;66.40
31675;DHT22;18276;45.520;11.018;2023-04-03T04:43:06;9.80;66.70
31675;DHT22;18276;45.520;11.018;2023-04-03T04:45:33;9.80;67.50
31675;DHT22;18276;45.520;11.018;2023-04-03T04:48:01;9.70;67.90
31675;DHT22;18276;45.520;11.018;2023-04-03T04:50:28;9.60;68.20
31675;DHT22;18276;45.520;11.018;2023-04-03T04:52:55;9.60;68.50
31675;DHT22;18276;45.520;11.018;2023-04-03T04:55:22;9.50;69.20
31675;DHT22;18276;45.520;11.018;2023-04-03T04:57:49;9.50;69.40
31675;DHT22;18276;45.520;11.018;2023-04-03T05:00:17;9.40;69.40
31675;DHT22;18276;45.520;11.018;2023-04-03T05:02:44;9.30;69.90
31675;DHT22;18276;45.520;11.018;2023-04-03T05:05:12;9.30;70.30
31675;DHT22;18276;45.520;11.018;2023-04-03T05:07:39;9.30;70.50
31675;DHT22;18276;45.520;11.018;2023-04-03T05:10:07;9.30;70.80
31675;DHT22;18276;45.520;11.018;2023-04-03T05:12:35;9.30;71.10
31675;DHT22;18276;45.520;11.018;2023-04-03T05:15:04;9.30;71.20
31675;DHT22;18276;45.520;11.018;2023-04-03T05:17:32;9.30;71.20
31675;DHT22;18276;45.520;11.018;2023-04-03T05:20:01;9.40;71.00
31675;DHT22;18276;45.520;11.018;2023-04-03T05:22:28;9.40;70.80
31675;DHT22;18276;45.520;11.018;2023-04-03T05:25:00;9.50;70.60
31675;DHT22;18276;45.520;11.018;2023-04-03T05:27:27;9.50;70.50
31675;DHT22;18276;45.520;11.018;2023-04-03T05:29:57;9.60;70.30
31675;DHT22;18276;45.520;11.018;2023-04-03T05:32:24;9.60;70.00
31675;DHT22;18276;45.520;11.018;2023-04-03T05:35:06;9.70;70.00
31675;DHT22;18276;45.520;11.018;2023-04-03T05:37:35;9.80;70.00
31675;DHT22;18276;45.520;11.018;2023-04-03T05:40:03;10.50;69.60
31675;DHT22;18276;45.520;11.018;2023-04-03T05:42:31;11.40;67.60
31675;DHT22;18276;45.520;11.018;2023-04-03T05:44:59;12.30;65.40
31675;DHT22;18276;45.520;11.018;2023-04-03T05:47:26;13.20;62.70
31675;DHT22;18276;45.520;11.018;2023-04-03T05:49:53;14.10;60.00
31675;DHT22;18276;45.520;11.018;2023-04-03T05:52:27;14.60;58.10
31675;DHT22;18276;45.520;11.018;2023-04-03T05:54:55;15.00;57.40
31675;DHT22;18276;45.520;11.018;2023-04-03T05:57:25;15.10;57.30
31675;DHT22;18276;45.520;11.018;2023-04-03T05:59:52;15.30;57.30
31675;DHT22;18276;45.520;11.018;2023-04-03T06:02:22;15.40;57.10
31675;DHT22;18276;45.520;11.018;2023-04-03T06:04:50;15.50;56.70
31675;DHT22;18276;45.520;11.018;2023-04-03T06:07:23;15.90;56.60
31675;DHT22;18276;45.520;11.018;2023-04-03T06:09:55;16.60;55.30
31675;DHT22;18276;45.520;11.018;2023-04-03T06:12:23;17.60;53.80
31675;DHT22;18276;45.520;11.018;2023-04-03T06:14:50;18.50;51.30
31675;DHT22;18276;45.520;11.018;2023-04-03T06:17:17;19.30;49.70
31675;DHT22;18276;45.520;11.018;2023-04-03T06:19:45;20.10;48.00
31675;DHT22;18276;45.520;11.018;2023-04-03T06:22:12;20.60;46.00
31675;DHT22;18276;45.520;11.018;2023-04-03T06:24:39;21.20;45.10
31675;DHT22;18276;45.520;11.018;2023-04-03T06:27:06;21.70;44.10
31675;DHT22;18276;45.520;11.018;2023-04-03T06:29:34;22.20;43.00
31675;DHT22;18276;45.520;11.018;2023-04-03T06:32:00;22.50;41.90
31675;DHT22;18276;45.520;11.018;2023-04-03T06:34:27;22.90;41.60
31675;DHT22;18276;45.520;11.018;2023-04-03T06:36:54;23.40;40.70
31675;DHT22;18276;45.520;11.018;2023-04-03T06:39:21;23.70;39.90
31675;DHT22;18276;45.520;11.018;2023-04-03T06:41:51;24.10;39.70
31675;DHT22;18276;45.520;11.018;2023-04-03T06:44:26;24.70;39.00
31675;DHT22;18276;45.520;11.018;2023-04-03T06:46:53;25.20;37.90
31675;DHT22;18276;45.520;11.018;2023-04-03T06:49:21;25.50;37.50
31675;DHT22;18276;45.520;11.018;2023-04-03T06:51:48;26.00;37.10
31675;DHT22;18276;45.520;11.018;2023-04-03T06:54:15;26.50;36.50
31675;DHT22;18276;45.520;11.018;2023-04-03T06:56:42;26.90;35.80
31675;DHT22;18276;45.520;11.018;2023-04-03T06:59:09;27.20;35.40
31675;DHT22;18276;45.520;11.018;2023-04-03T07:01:36;27.50;34.50
31675;DHT22;18276;45.520;11.018;2023-04-03T07:04:03;27.30;34.60
31675;DHT22;18276;45.520;11.018;2023-04-03T07:06:30;27.40;34.40
31675;DHT22;18276;45.520;11.018;2023-04-03T07:08:59;27.40;34.50
31675;DHT22;18276;45.520;11.018;2023-04-03T07:11:26;27.30;34.70
31675;DHT22;18276;45.520;11.018;2023-04-03T07:13:53;27.00;35.00
31675;DHT22;18276;45.520;11.018;2023-04-03T07:16:20;26.90;35.60
31675;DHT22;18276;45.520;11.018;2023-04-03T07:18:47;26.60;35.70
31675;DHT22;18276;45.520;11.018;2023-04-03T07:21:14;26.50;36.50
31675;DHT22;18276;45.520;11.018;2023-04-03T07:23:41;26.50;36.80
31675;DHT22;18276;45.520;11.018;2023-04-03T07:26:08;26.60;36.90
31675;DHT22;18276;45.520;11.018;2023-04-03T07:28:35;26.80;36.70
31675;DHT22;18276;45.520;11.018;2023-04-03T07:31:04;27.00;36.50
31675;DHT22;18276;45.520;11.018;2023-04-03T07:33:32;26.90;36.70
31675;DHT22;18276;45.520;11.018;2023-04-03T07:35:59;27.00;37.00
31675;DHT22;18276;45.520;11.018;2023-04-03T07:38:27;26.70;36.60
31675;DHT22;18276;45.520;11.018;2023-04-03T07:40:54;26.60;36.90
31675;DHT22;18276;45.520;11.018;2023-04-03T07:43:21;26.70;37.00
31675;DHT22;18276;45.520;11.018;2023-04-03T07:45:48;26.90;36.50
31675;DHT22;18276;45.520;11.018;2023-04-03T07:48:19;27.00;36.30
31675;DHT22;18276;45.520;11.018;2023-04-03T07:50:46;26.80;36.40
31675;DHT22;18276;45.520;11.018;2023-04-03T07:53:13;26.60;36.20
31675;DHT22;18276;45.520;11.018;2023-04-03T07:55:40;26.90;36.50
31675;DHT22;18276;45.520;11.018;2023-04-03T07:58:10;27.20;35.80
31675;DHT22;18276;45.520;11.018;2023-04-03T08:00:37;26.20;36.60
31675;DHT22;18276;45.520;11.018;2023-04-03T08:03:05;26.20;37.30
31675;DHT22;18276;45.520;11.018;2023-04-03T08:05:40;26.70;36.70
31675;DHT22;18276;45.520;11.018;2023-04-03T08:08:07;26.60;36.00
31675;DHT22;18276;45.520;11.018;2023-04-03T08:10:34;26.50;36.60
31675;DHT22;18276;45.520;11.018;2023-04-03T08:13:01;26.20;36.80
31675;DHT22;18276;45.520;11.018;2023-04-03T08:15:29;26.20;37.50
31675;DHT22;18276;45.520;11.018;2023-04-03T08:17:56;25.60;37.30
31675;DHT22;18276;45.520;11.018;2023-04-03T08:20:24;24.50;39.40
31675;DHT22;18276;45.520;11.018;2023-04-03T08:22:51;25.00;38.70
31675;DHT22;18276;45.520;11.018;2023-04-03T08:25:18;25.60;37.80
31675;DHT22;18276;45.520;11.018;2023-04-03T08:27:45;26.00;37.40
31675;DHT22;18276;45.520;11.018;2023-04-03T08:30:12;25.40;37.40
31675;DHT22;18276;45.520;11.018;2023-04-03T08:32:39;24.40;38.40
31675;DHT22;18276;45.520;11.018;2023-04-03T08:35:08;23.10;41.10
31675;DHT22;18276;45.520;11.018;2023-04-03T08:37:35;21.90;43.60
31675;DHT22;18276;45.520;11.018;2023-04-03T08:40:04;21.00;47.30
31675;DHT22;18276;45.520;11.018;2023-04-03T08:48:08;23.70;41.80
31675;DHT22;18276;45.520;11.018;2023-04-03T08:50:38;23.60;41.60
31675;DHT22;18276;45.520;11.018;2023-04-03T08:53:06;24.30;41.30
31675;DHT22;18276;45.520;11.018;2023-04-03T08:55:39;25.10;39.60
31675;DHT22;18276;45.520;11.018;2023-04-03T08:58:10;25.00;38.40
31675;DHT22;18276;45.520;11.018;2023-04-03T09:03:19;22.90;41.40
31675;DHT22;18276;45.520;11.018;2023-04-03T09:10:49;25.20;39.60
31675;DHT22;18276;45.520;11.018;2023-04-03T09:15:54;23.80;39.20
31675;DHT22;18276;45.520;11.018;2023-04-03T09:18:32;22.30;41.90
31675;DHT22;18276;45.520;11.018;2023-04-03T09:21:23;21.50;44.10
31675;DHT22;18276;45.520;11.018;2023-04-03T09:23:54;22.70;43.20
31675;DHT22;18276;45.520;11.018;2023-04-03T09:28:55;22.40;42.00
31675;DHT22;18276;45.520;11.018;2023-04-03T09:31:25;21.40;43.70
31675;DHT22;18276;45.520;11.018;2023-04-03T09:33:54;20.80;45.10
31675;DHT22;18276;45.520;11.018;2023-04-03T09:39:30;19.80;46.80
31675;DHT22;18276;45.520;11.018;2023-04-03T09:41:59;20.20;48.10
31675;DHT22;18276;45.520;11.018;2023-04-03T09:44:37;21.40;45.20
31675;DHT22;18276;45.520;11.018;2023-04-03T09:47:47;21.00;44.80
31675;DHT22;18276;45.520;11.018;2023-04-03T09:50:09;20.20;46.20
31675;DHT22;18276;45.520;11.018;2023-04-03T09:52:42;19.70;47.80
31675;DHT22;18276;45.520;11.018;2023-04-03T09:55:44;20.00;47.70
31675;DHT22;18276;45.520;11.018;2023-04-03T09:58:04;19.80;47.50
31675;DHT22;18276;45.520;11.018;2023-04-03T10:00:53;19.30;48.40
31675;DHT22;18276;45.520;11.018;2023-04-03T10:03:23;18.90;49.30
31675;DHT22;18276;45.520;11.018;2023-04-03T10:05:50;18.50;49.70
31675;DHT22;18276;45.520;11.018;2023-04-03T10:08:22;18.20;50.60
31675;DHT22;18276;45.520;11.018;2023-04-03T10:11:07;18.10;51.30
31675;DHT22;18276;45.520;11.018;2023-04-03T10:13:35;18.10;51.60
31675;DHT22;18276;45.520;11.018;2023-04-03T10:16:17;18.00;51.40
31675;DHT22;18276;45.520;11.018;2023-04-03T10:18:52;17.80;51.10
31675;DHT22;18276;45.520;11.018;2023-04-03T10:21:33;17.80;51.40
31675;DHT22;18276;45.520;11.018;2023-04-03T10:26:46;18.20;51.30
31675;DHT22;18276;45.520;11.018;2023-04-03T10:34:53;20.20;46.10
31675;DHT22;18276;45.520;11.018;2023-04-03T10:37:47;21.70;44.00
31675;DHT22;18276;45.520;11.018;2023-04-03T10:45:36;23.70;40.10
31675;DHT22;18276;45.520;11.018;2023-04-03T10:48:26;24.70;38.30
31675;DHT22;18276;45.520;11.018;2023-04-03T10:58:54;21.70;41.00
31675;DHT22;18276;45.520;11.018;2023-04-03T11:01:27;20.50;43.20
31675;DHT22;18276;45.520;11.018;2023-04-03T11:03:58;19.80;44.80
31675;DHT22;18276;45.520;11.018;2023-04-03T11:06:26;19.80;45.80
31675;DHT22;18276;45.520;11.018;2023-04-03T11:09:00;20.10;44.70
31675;DHT22;18276;45.520;11.018;2023-04-03T11:11:33;19.80;44.60
31675;DHT22;18276;45.520;11.018;2023-04-03T11:14:08;19.50;45.50
31675;DHT22;18276;45.520;11.018;2023-04-03T11:16:45;19.20;45.90
31675;DHT22;18276;45.520;11.018;2023-04-03T11:19:34;18.80;46.70
31675;DHT22;18276;45.520;11.018;2023-04-03T11:24:46;18.40;47.70
31675;DHT22;18276;45.520;11.018;2023-04-03T11:27:23;18.40;47.90
31675;DHT22;18276;45.520;11.018;2023-04-03T11:29:55;18.50;47.70
31675;DHT22;18276;45.520;11.018;2023-04-03T11:35:18;18.30;47.90
31675;DHT22;18276;45.520;11.018;2023-04-03T11:37:48;18.00;48.40
31675;DHT22;18276;45.520;11.018;2023-04-03T11:42:47;17.90;48.90
31675;DHT22;18276;45.520;11.018;2023-04-03T11:47:54;17.40;50.10
31675;DHT22;18276;45.520;11.018;2023-04-03T11:50:55;17.20;50.50
31675;DHT22;18276;45.520;11.018;2023-04-03T11:55:43;17.20;50.60
31675;DHT22;18276;45.520;11.018;2023-04-03T11:58:12;17.30;50.20
31675;DHT22;18276;45.520;11.018;2023-04-03T12:05:57;17.10;50.60
31675;DHT22;18276;45.520;11.018;2023-04-03T12:08:44;17.00;50.60
31675;DHT22;18276;45.520;11.018;2023-04-03T12:16:07;17.00;51.10
31675;DHT22;18276;45.520;11.018;2023-04-03T12:21:16;16.80;51.50
31675;DHT22;18276;45.520;11.018;2023-04-03T12:23:57;16.70;51.50
31675;DHT22;18276;45.520;11.018;2023-04-03T12:26:28;16.70;51.60
31675;DHT22;18276;45.520;11.018;2023-04-03T12:37:35;16.90;51.20
31675;DHT22;18276;45.520;11.018;2023-04-03T12:40:26;16.90;51.20
31675;DHT22;18276;45.520;11.018;2023-04-03T12:48:15;16.60;51.50
31675;DHT22;18276;45.520;11.018;2023-04-03T12:50:44;16.50;51.70
31675;DHT22;18276;45.520;11.018;2023-04-03T12:53:16;16.30;52.30
31675;DHT22;18276;45.520;11.018;2023-04-03T12:55:45;16.10;52.70
31675;DHT22;18276;45.520;11.018;2023-04-03T12:58:13;16.20;52.80
31675;DHT22;18276;45.520;11.018;2023-04-03T13:00:41;16.30;52.50
31675;DHT22;18276;45.520;11.018;2023-04-03T13:03:19;16.20;52.40
31675;DHT22;18276;45.520;11.018;2023-04-03T13:05:48;16.30;52.80
31675;DHT22;18276;45.520;11.018;2023-04-03T13:08:15;16.10;52.40
31675;DHT22;18276;45.520;11.018;2023-04-03T13:10:43;16.00;53.00
31675;DHT22;18276;45.520;11.018;2023-04-03T13:13:13;16.00;53.10
31675;DHT22;18276;45.520;11.018;2023-04-03T13:15:42;16.10;53.20
31675;DHT22;18276;45.520;11.018;2023-04-03T13:18:31;16.10;52.90
31675;DHT22;18276;45.520;11.018;2023-04-03T13:21:05;16.10;52.90
31675;DHT22;18276;45.520;11.018;2023-04-03T13:23:33;16.00;52.80
31675;DHT22;18276;45.520;11.018;2023-04-03T13:26:02;15.90;53.20
31675;DHT22;18276;45.520;11.018;2023-04-03T13:28:30;15.80;53.40
31675;DHT22;18276;45.520;11.018;2023-04-03T13:36:21;15.50;54.10
31675;DHT22;18276;45.520;11.018;2023-04-03T13:39:55;15.50;54.20
31675;DHT22;18276;45.520;11.018;2023-04-03T13:41:45;15.50;54.30
31675;DHT22;18276;45.520;11.018;2023-04-03T13:46:49;15.50;54.70
31675;DHT22;18276;45.520;11.018;2023-04-03T13:49:26;15.50;54.60
31675;DHT22;18276;45.520;11.018;2023-04-03T13:51:57;15.50;54.30
31675;DHT22;18276;45.520;11.018;2023-04-03T13:54:37;15.40;54.40
31675;DHT22;18276;45.520;11.018;2023-04-03T13:57:15;15.40;54.40
31675;DHT22;18276;45.520;11.018;2023-04-03T13:59:42;15.40;54.70
31675;DHT22;18276;45.520;11.018;2023-04-03T14:02:13;15.40;54.70
31675;DHT22;18276;45.520;11.018;2023-04-03T14:07:11;15.40;54.50
31675;DHT22;18276;45.520;11.018;2023-04-03T14:09:38;15.30;54.60
31675;DHT22;18276;45.520;11.018;2023-04-03T14:12:07;15.20;54.70
31675;DHT22;18276;45.520;11.018;2023-04-03T14:14:44;15.20;55.00
31675;DHT22;18276;45.520;11.018;2023-04-03T14:17:22;15.20;55.00
31675;DHT22;18276;45.520;11.018;2023-04-03T14:19:51;15.20;55.10
31675;DHT22;18276;45.520;11.018;2023-04-03T14:22:20;15.10;55.10
31675;DHT22;18276;45.520;11.018;2023-04-03T14:24:48;15.10;55.20
31675;DHT22;18276;45.520;11.018;2023-04-03T14:27:20;15.00;55.30
31675;DHT22;18276;45.520;11.018;2023-04-03T14:29:48;14.90;55.40
31675;DHT22;18276;45.520;11.018;2023-04-03T14:32:21;14.90;55.70
31675;DHT22;18276;45.520;11.018;2023-04-03T14:34:49;14.80;55.90
31675;DHT22;18276;45.520;11.018;2023-04-03T14:37:18;14.70;56.10
31675;DHT22;18276;45.520;11.018;2023-04-03T14:39:46;14.80;56.10
31675;DHT22;18276;45.520;11.018;2023-04-03T14:42:14;14.80;56.00
31675;DHT22;18276;45.520;11.018;2023-04-03T14:44:42;14.80;56.00
31675;DHT22;18276;45.520;11.018;2023-04-03T14:47:10;14.80;56.00
31675;DHT22;18276;45.520;11.018;2023-04-03T14:49:45;14.80;56.20
31675;DHT22;18276;45.520;11.018;2023-04-03T14:52:17;14.70;56.00
31675;DHT22;18276;45.520;11.018;2023-04-03T14:54:44;14.70;56.00
31675;DHT22;18276;45.520;11.018;2023-04-03T14:57:12;14.80;55.90
31675;DHT22;18276;45.520;11.018;2023-04-03T14:59:39;14.70;56.10
31675;DHT22;18276;45.520;11.018;2023-04-03T15:04:53;14.80;56.10
31675;DHT22;18276;45.520;11.018;2023-04-03T15:07:21;14.80;55.80
31675;DHT22;18276;45.520;11.018;2023-04-03T15:09:48;14.80;55.80
31675;DHT22;18276;45.520;11.018;2023-04-03T15:12:15;14.80;55.90
31675;DHT22;18276;45.520;11.018;2023-04-03T15:14:42;14.80;55.80
31675;DHT22;18276;45.520;11.018;2023-04-03T15:17:20;14.70;55.80
31675;DHT22;18276;45.520;11.018;2023-04-03T15:19:48;14.70;56.60
31675;DHT22;18276;45.520;11.018;2023-04-03T15:22:16;14.70;56.10
31675;DHT22;18276;45.520;11.018;2023-04-03T15:24:43;14.70;56.20
31675;DHT22;18276;45.520;11.018;2023-04-03T15:27:10;14.70;55.90
31675;DHT22;18276;45.520;11.018;2023-04-03T15:29:39;14.60;55.90
31675;DHT22;18276;45.520;11.018;2023-04-03T15:32:06;14.70;55.80
31675;DHT22;18276;45.520;11.018;2023-04-03T15:34:33;14.70;55.90
31675;DHT22;18276;45.520;11.018;2023-04-03T15:37:00;14.70;56.00
31675;DHT22;18276;45.520;11.018;2023-04-03T15:39:27;14.80;55.90
31675;DHT22;18276;45.520;11.018;2023-04-03T15:41:54;14.80;55.60
31675;DHT22;18276;45.520;11.018;2023-04-03T15:44:21;14.80;55.60
31675;DHT22;18276;45.520;11.018;2023-04-03T15:46:48;14.80;55.60
31675;DHT22;18276;45.520;11.018;2023-04-03T15:49:18;14.80;55.70
31675;DHT22;18276;45.520;11.018;2023-04-03T15:51:46;14.90;55.70
31675;DHT22;18276;45.520;11.018;2023-04-03T15:54:13;14.90;56.20
31675;DHT22;18276;45.520;11.018;2023-04-03T15:56:40;14.90;55.40
31675;DHT22;18276;45.520;11.018;2023-04-03T15:59:07;14.90;55.30
31675;DHT22;18276;45.520;11.018;2023-04-03T16:01:36;14.90;55.20
31675;DHT22;18276;45.520;11.018;2023-04-03T16:04:04;14.80;54.90
31675;DHT22;18276;45.520;11.018;2023-04-03T16:06:31;14.80;55.00
31675;DHT22;18276;45.520;11.018;2023-04-03T16:08:59;14.70;55.10
31675;DHT22;18276;45.520;11.018;2023-04-03T16:11:28;14.70;55.20
31675;DHT22;18276;45.520;11.018;2023-04-03T16:13:55;14.70;55.00
31675;DHT22;18276;45.520;11.018;2023-04-03T16:16:22;14.60;55.00
31675;DHT22;18276;45.520;11.018;2023-04-03T16:18:53;14.60;55.00
31675;DHT22;18276;45.520;11.018;2023-04-03T16:21:20;14.60;54.70
31675;DHT22;18276;45.520;11.018;2023-04-03T16:23:47;14.60;54.90
31675;DHT22;18276;45.520;11.018;2023-04-03T16:26:14;14.60;54.90
31675;DHT22;18276;45.520;11.018;2023-04-03T16:28:40;14.60;55.00
31675;DHT22;18276;45.520;11.018;2023-04-03T16:31:07;14.60;54.70
31675;DHT22;18276;45.520;11.018;2023-04-03T16:33:35;14.50;54.80
31675;DHT22;18276;45.520;11.018;2023-04-03T16:36:03;14.40;55.00
31675;DHT22;18276;45.520;11.018;2023-04-03T16:38:31;14.40;55.20
31675;DHT22;18276;45.520;11.018;2023-04-03T16:40:58;14.40;55.10
31675;DHT22;18276;45.520;11.018;2023-04-03T16:43:31;14.40;55.10
31675;DHT22;18276;45.520;11.018;2023-04-03T16:45:58;14.40;55.00
31675;DHT22;18276;45.520;11.018;2023-04-03T16:48:25;14.30;54.40
31675;DHT22;18276;45.520;11.018;2023-04-03T16:50:52;14.20;54.10
31675;DHT22;18276;45.520;11.018;2023-04-03T16:53:20;14.20;53.80
31675;DHT22;18276;45.520;11.018;2023-04-03T16:55:47;14.00;53.90
31675;DHT22;18276;45.520;11.018;2023-04-03T16:58:14;14.00;54.10
31675;DHT22;18276;45.520;11.018;2023-04-03T17:00:42;13.80;53.80
31675;DHT22;18276;45.520;11.018;2023-04-03T17:03:09;13.80;54.10
31675;DHT22;18276;45.520;11.018;2023-04-03T17:05:35;13.70;54.20
31675;DHT22;18276;45.520;11.018;2023-04-03T17:08:03;13.70;54.40
31675;DHT22;18276;45.520;11.018;2023-04-03T17:10:30;13.70;54.50
31675;DHT22;18276;45.520;11.018;2023-04-03T17:12:57;13.60;54.30